sensor_id;sensor_type;location;lat;lon;timestamp;temperature;humidity
33067;DHT22;19428;49.024;8.366;2024-02-26T00:02:18;9.00;1.00
33067;DHT22;19428;49.024;8.366;2024-02-26T00:04:43;9.00;1.00
33067;DHT22;19428;49.024;8.366;2024-02-26T00:07:09;9.00;1.00
33067;DHT22;19428;49.024;8.366;2024-02-26T00:09:35;9.00;1.00
33067;DHT22;19428;49.024;8.366;2024-02-26T00:12:03;8.90;1.00
33067;DHT22;19428;49.024;8.366;2024-02-26T00:14:29;9.00;1.00
33067;DHT22;19428;49.024;8.366;2024-02-26T00:16:55;8.90;1.00
33067;DHT22;19428;49.024;8.366;2024-02-26T00:19:20;9.00;1.00
33067;DHT22;19428;49.024;8.366;2024-02-26T00:21:46;8.90;1.00
33067;DHT22;19428;49.024;8.366;2024-02-26T00:24:12;8.90;1.00
33067;DHT22;19428;49.024;8.366;2024-02-26T00:26:37;8.90;1.00
33067;DHT22;19428;49.024;8.366;2024-02-26T00:29:03;8.90;1.00
33067;DHT22;19428;49.024;8.366;2024-02-26T00:31:28;8.90;1.00
33067;DHT22;19428;49.024;8.366;2024-02-26T00:33:54;8.90;1.00
33067;DHT22;19428;49.024;8.366;2024-02-26T00:36:19;8.90;1.00
33067;DHT22;19428;49.024;8.366;2024-02-26T00:38:45;8.90;1.00
33067;DHT22;19428;49.024;8.366;2024-02-26T00:41:19;8.80;1.00
33067;DHT22;19428;49.024;8.366;2024-02-26T00:43:45;8.90;1.00
33067;DHT22;19428;49.024;8.366;2024-02-26T00:46:10;9.00;1.00
33067;DHT22;19428;49.024;8.366;2024-02-26T00:48:36;9.00;1.00
33067;DHT22;19428;49.024;8.366;2024-02-26T00:51:03;9.00;1.00
33067;DHT22;19428;49.024;8.366;2024-02-26T00:53:30;8.90;1.00
33067;DHT22;19428;49.024;8.366;2024-02-26T00:55:56;8.90;1.00
33067;DHT22;19428;49.024;8.366;2024-02-26T00:58:24;8.90;1.00
33067;DHT22;19428;49.024;8.366;2024-02-26T01:00:49;8.80;1.00
33067;DHT22;19428;49.024;8.366;2024-02-26T01:03:15;8.80;1.00
33067;DHT22;19428;49.024;8.366;2024-02-26T01:05:40;8.60;1.90
33067;DHT22;19428;49.024;8.366;2024-02-26T01:08:08;8.70;1.00
33067;DHT22;19428;49.024;8.366;2024-02-26T01:10:36;8.70;1.00
33067;DHT22;19428;49.024;8.366;2024-02-26T01:13:02;8.60;8.40
33067;DHT22;19428;49.024;8.366;2024-02-26T01:15:28;8.60;10.90
33067;DHT22;19428;49.024;8.366;2024-02-26T01:17:53;8.70;10.60
33067;DHT22;19428;49.024;8.366;2024-02-26T01:20:19;8.40;23.00
33067;DHT22;19428;49.024;8.366;2024-02-26T01:22:45;8.50;23.30
33067;DHT22;19428;49.024;8.366;2024-02-26T01:25:11;8.40;23.50
33067;DHT22;19428;49.024;8.366;2024-02-26T01:27:37;8.30;34.80
33067;DHT22;19428;49.024;8.366;2024-02-26T01:30:04;8.40;25.00
33067;DHT22;19428;49.024;8.366;2024-02-26T01:32:30;8.60;19.70
33067;DHT22;19428;49.024;8.366;2024-02-26T01:34:56;8.60;14.60
33067;DHT22;19428;49.024;8.366;2024-02-26T01:37:22;8.50;22.30
33067;DHT22;19428;49.024;8.366;2024-02-26T01:39:48;8.50;26.30
33067;DHT22;19428;49.024;8.366;2024-02-26T01:42:13;8.30;30.30
33067;DHT22;19428;49.024;8.366;2024-02-26T01:44:39;8.10;80.00
33067;DHT22;19428;49.024;8.366;2024-02-26T01:47:05;8.20;72.30
33067;DHT22;19428;49.024;8.366;2024-02-26T01:49:34;8.30;46.40
33067;DHT22;19428;49.024;8.366;2024-02-26T01:52:01;8.30;58.70
33067;DHT22;19428;49.024;8.366;2024-02-26T01:54:27;8.20;68.40
33067;DHT22;19428;49.024;8.366;2024-02-26T01:56:53;8.30;68.20
33067;DHT22;19428;49.024;8.366;2024-02-26T01:59:19;8.40;71.10
33067;DHT22;19428;49.024;8.366;2024-02-26T02:01:48;8.40;69.80
33067;DHT22;19428;49.024;8.366;2024-02-26T02:04:19;8.40;69.80
33067;DHT22;19428;49.024;8.366;2024-02-26T02:06:46;8.30;89.80
33067;DHT22;19428;49.024;8.366;2024-02-26T02:09:14;8.40;76.30
33067;DHT22;19428;49.024;8.366;2024-02-26T02:11:40;8.30;76.00
33067;DHT22;19428;49.024;8.366;2024-02-26T02:14:16;8.50;59.50
33067;DHT22;19428;49.024;8.366;2024-02-26T02:17:02;8.30;78.80
33067;DHT22;19428;49.024;8.366;2024-02-26T02:29:58;8.30;99.90
33067;DHT22;19428;49.024;8.366;2024-02-26T02:32:25;8.40;99.90
33067;DHT22;19428;49.024;8.366;2024-02-26T02:34:50;8.10;99.90
33067;DHT22;19428;49.024;8.366;2024-02-26T02:37:16;7.90;99.90
33067;DHT22;19428;49.024;8.366;2024-02-26T02:39:43;7.90;99.90
33067;DHT22;19428;49.024;8.366;2024-02-26T02:42:09;7.70;99.90
33067;DHT22;19428;49.024;8.366;2024-02-26T02:45:16;7.70;99.90
33067;DHT22;19428;49.024;8.366;2024-02-26T02:47:42;7.60;99.90
33067;DHT22;19428;49.024;8.366;2024-02-26T02:50:07;7.70;99.90
33067;DHT22;19428;49.024;8.366;2024-02-26T02:52:33;7.70;99.90
33067;DHT22;19428;49.024;8.366;2024-02-26T02:54:59;7.80;99.90
33067;DHT22;19428;49.024;8.366;2024-02-26T02:57:24;7.70;99.90
33067;DHT22;19428;49.024;8.366;2024-02-26T02:59:50;7.40;99.90
33067;DHT22;19428;49.024;8.366;2024-02-26T03:02:16;7.40;99.90
33067;DHT22;19428;49.024;8.366;2024-02-26T03:04:41;7.30;99.90
33067;DHT22;19428;49.024;8.366;2024-02-26T03:07:07;7.30;99.90
33067;DHT22;19428;49.024;8.366;2024-02-26T03:09:32;7.40;99.90
33067;DHT22;19428;49.024;8.366;2024-02-26T03:11:58;7.30;99.90
33067;DHT22;19428;49.024;8.366;2024-02-26T03:14:23;7.30;99.90
33067;DHT22;19428;49.024;8.366;2024-02-26T03:16:53;7.30;99.90
33067;DHT22;19428;49.024;8.366;2024-02-26T03:19:19;7.40;99.90
33067;DHT22;19428;49.024;8.366;2024-02-26T03:21:45;7.40;99.90
33067;DHT22;19428;49.024;8.366;2024-02-26T03:24:40;7.40;99.90
33067;DHT22;19428;49.024;8.366;2024-02-26T03:27:05;7.40;99.90
33067;DHT22;19428;49.024;8.366;2024-02-26T03:29:35;7.40;99.90
33067;DHT22;19428;49.024;8.366;2024-02-26T03:32:00;7.20;99.90
33067;DHT22;19428;49.024;8.366;2024-02-26T03:34:27;7.20;99.90
33067;DHT22;19428;49.024;8.366;2024-02-26T03:36:53;7.30;99.90
33067;DHT22;19428;49.024;8.366;2024-02-26T03:39:19;7.40;99.90
33067;DHT22;19428;49.024;8.366;2024-02-26T03:41:44;7.30;99.90
33067;DHT22;19428;49.024;8.366;2024-02-26T03:44:10;7.30;99.90
33067;DHT22;19428;49.024;8.366;2024-02-26T03:46:36;7.30;99.90
33067;DHT22;19428;49.024;8.366;2024-02-26T03:49:01;7.40;99.90
33067;DHT22;19428;49.024;8.366;2024-02-26T03:51:42;7.40;99.90
33067;DHT22;19428;49.024;8.366;2024-02-26T03:54:27;7.30;99.90
33067;DHT22;19428;49.024;8.366;2024-02-26T03:56:53;7.40;99.90
33067;DHT22;19428;49.024;8.366;2024-02-26T03:59:18;7.40;99.90
33067;DHT22;19428;49.024;8.366;2024-02-26T04:01:46;7.40;99.90
33067;DHT22;19428;49.024;8.366;2024-02-26T04:04:12;7.30;99.90
33067;DHT22;19428;49.024;8.366;2024-02-26T04:06:38;7.30;99.90
33067;DHT22;19428;49.024;8.366;2024-02-26T04:09:03;7.30;99.90
33067;DHT22;19428;49.024;8.366;2024-02-26T04:11:29;7.30;99.90
33067;DHT22;19428;49.024;8.366;2024-02-26T04:13:55;7.30;99.90
33067;DHT22;19428;49.024;8.366;2024-02-26T04:16:20;7.20;99.90
33067;DHT22;19428;49.024;8.366;2024-02-26T04:18:46;7.30;99.90
33067;DHT22;19428;49.024;8.366;2024-02-26T04:21:12;7.20;99.90
33067;DHT22;19428;49.024;8.366;2024-02-26T04:23:38;7.30;99.90
33067;DHT22;19428;49.024;8.366;2024-02-26T04:26:05;7.30;99.90
33067;DHT22;19428;49.024;8.366;2024-02-26T04:28:30;7.30;99.90
33067;DHT22;19428;49.024;8.366;2024-02-26T04:30:56;7.30;99.90
33067;DHT22;19428;49.024;8.366;2024-02-26T04:33:22;7.30;99.90
33067;DHT22;19428;49.024;8.366;2024-02-26T04:35:47;7.20;99.90
33067;DHT22;19428;49.024;8.366;2024-02-26T04:38:13;7.20;99.90
33067;DHT22;19428;49.024;8.366;2024-02-26T04:40:38;7.30;99.90
33067;DHT22;19428;49.024;8.366;2024-02-26T04:43:04;7.30;99.90
33067;DHT22;19428;49.024;8.366;2024-02-26T04:45:29;7.30;99.90
33067;DHT22;19428;49.024;8.366;2024-02-26T04:47:55;7.20;99.90
33067;DHT22;19428;49.024;8.366;2024-02-26T04:50:21;7.30;99.90
33067;DHT22;19428;49.024;8.366;2024-02-26T04:52:46;7.20;99.90
33067;DHT22;19428;49.024;8.366;2024-02-26T04:55:12;7.20;99.90
33067;DHT22;19428;49.024;8.366;2024-02-26T04:57:37;7.20;99.90
33067;DHT22;19428;49.024;8.366;2024-02-26T05:00:04;7.20;99.90
33067;DHT22;19428;49.024;8.366;2024-02-26T05:05:39;7.10;99.90
33067;DHT22;19428;49.024;8.366;2024-02-26T05:08:05;7.20;99.90
33067;DHT22;19428;49.024;8.366;2024-02-26T05:10:31;7.20;99.90
33067;DHT22;19428;49.024;8.366;2024-02-26T05:12:56;7.20;99.90
33067;DHT22;19428;49.024;8.366;2024-02-26T05:15:22;7.20;99.90
33067;DHT22;19428;49.024;8.366;2024-02-26T05:17:48;7.20;99.90
33067;DHT22;19428;49.024;8.366;2024-02-26T05:20:14;7.20;99.90
33067;DHT22;19428;49.024;8.366;2024-02-26T05:22:39;7.20;99.90
33067;DHT22;19428;49.024;8.366;2024-02-26T05:25:28;7.20;99.90
33067;DHT22;19428;49.024;8.366;2024-02-26T05:27:57;7.20;99.90
33067;DHT22;19428;49.024;8.366;2024-02-26T05:30:23;7.30;99.90
33067;DHT22;19428;49.024;8.366;2024-02-26T05:32:48;7.30;99.90
33067;DHT22;19428;49.024;8.366;2024-02-26T05:35:14;7.30;99.90
33067;DHT22;19428;49.024;8.366;2024-02-26T05:37:40;7.30;99.90
33067;DHT22;19428;49.024;8.366;2024-02-26T05:40:06;7.30;99.90
33067;DHT22;19428;49.024;8.366;2024-02-26T05:42:32;7.40;99.90
33067;DHT22;19428;49.024;8.366;2024-02-26T05:44:58;7.40;99.90
33067;DHT22;19428;49.024;8.366;2024-02-26T05:47:24;7.40;99.90
33067;DHT22;19428;49.024;8.366;2024-02-26T05:49:50;7.30;99.90
33067;DHT22;19428;49.024;8.366;2024-02-26T05:52:15;7.20;99.90
33067;DHT22;19428;49.024;8.366;2024-02-26T05:54:41;7.20;99.90
33067;DHT22;19428;49.024;8.366;2024-02-26T05:57:06;7.10;99.90
33067;DHT22;19428;49.024;8.366;2024-02-26T05:59:32;7.20;99.90
33067;DHT22;19428;49.024;8.366;2024-02-26T06:01:57;7.10;99.90
33067;DHT22;19428;49.024;8.366;2024-02-26T06:04:23;7.10;99.90
33067;DHT22;19428;49.024;8.366;2024-02-26T06:06:49;7.20;99.90
33067;DHT22;19428;49.024;8.366;2024-02-26T06:09:15;7.20;99.90
33067;DHT22;19428;49.024;8.366;2024-02-26T06:11:40;7.20;99.90
33067;DHT22;19428;49.024;8.366;2024-02-26T06:14:06;7.20;99.90
33067;DHT22;19428;49.024;8.366;2024-02-26T06:16:31;7.30;99.90
33067;DHT22;19428;49.024;8.366;2024-02-26T06:18:58;7.40;99.90
33067;DHT22;19428;49.024;8.366;2024-02-26T06:21:25;7.30;99.90
33067;DHT22;19428;49.024;8.366;2024-02-26T06:23:51;7.30;99.90
33067;DHT22;19428;49.024;8.366;2024-02-26T06:26:17;7.30;99.90
33067;DHT22;19428;49.024;8.366;2024-02-26T06:28:45;7.40;99.90
33067;DHT22;19428;49.024;8.366;2024-02-26T06:31:11;7.40;99.90
33067;DHT22;19428;49.024;8.366;2024-02-26T06:33:36;7.40;99.90
33067;DHT22;19428;49.024;8.366;2024-02-26T06:36:02;7.40;99.90
33067;DHT22;19428;49.024;8.366;2024-02-26T06:38:28;7.30;99.90
33067;DHT22;19428;49.024;8.366;2024-02-26T06:40:53;7.40;99.90
33067;DHT22;19428;49.024;8.366;2024-02-26T06:43:19;7.40;99.90
33067;DHT22;19428;49.024;8.366;2024-02-26T06:45:45;7.30;99.90
33067;DHT22;19428;49.024;8.366;2024-02-26T06:48:10;7.30;99.90
33067;DHT22;19428;49.024;8.366;2024-02-26T06:50:36;7.40;99.90
33067;DHT22;19428;49.024;8.366;2024-02-26T06:53:01;7.30;99.90
33067;DHT22;19428;49.024;8.366;2024-02-26T06:55:27;7.40;99.90
33067;DHT22;19428;49.024;8.366;2024-02-26T06:57:52;7.60;99.90
33067;DHT22;19428;49.024;8.366;2024-02-26T07:00:18;7.60;99.90
33067;DHT22;19428;49.024;8.366;2024-02-26T07:02:44;7.60;99.90
33067;DHT22;19428;49.024;8.366;2024-02-26T07:05:09;7.60;99.90
33067;DHT22;19428;49.024;8.366;2024-02-26T07:07:35;7.60;99.90
33067;DHT22;19428;49.024;8.366;2024-02-26T07:10:01;7.60;99.90
33067;DHT22;19428;49.024;8.366;2024-02-26T07:12:30;7.60;99.90
33067;DHT22;19428;49.024;8.366;2024-02-26T07:14:55;7.60;99.90
33067;DHT22;19428;49.024;8.366;2024-02-26T07:17:21;7.70;99.90
33067;DHT22;19428;49.024;8.366;2024-02-26T07:19:46;7.70;99.90
33067;DHT22;19428;49.024;8.366;2024-02-26T07:22:12;7.70;99.90
33067;DHT22;19428;49.024;8.366;2024-02-26T07:24:37;7.70;99.90
33067;DHT22;19428;49.024;8.366;2024-02-26T07:27:03;7.70;99.90
33067;DHT22;19428;49.024;8.366;2024-02-26T07:29:29;7.70;99.90
33067;DHT22;19428;49.024;8.366;2024-02-26T07:31:55;7.70;99.90
33067;DHT22;19428;49.024;8.366;2024-02-26T07:34:20;7.70;99.90
33067;DHT22;19428;49.024;8.366;2024-02-26T07:36:52;7.80;99.90
33067;DHT22;19428;49.024;8.366;2024-02-26T07:39:19;7.80;99.90
33067;DHT22;19428;49.024;8.366;2024-02-26T07:41:44;7.70;99.90
33067;DHT22;19428;49.024;8.366;2024-02-26T07:44:12;7.70;99.90
33067;DHT22;19428;49.024;8.366;2024-02-26T07:46:37;7.80;99.90
33067;DHT22;19428;49.024;8.366;2024-02-26T07:49:03;7.90;99.90
33067;DHT22;19428;49.024;8.366;2024-02-26T07:51:29;7.90;99.90
33067;DHT22;19428;49.024;8.366;2024-02-26T07:53:54;8.00;99.90
33067;DHT22;19428;49.024;8.366;2024-02-26T07:56:20;8.00;99.90
33067;DHT22;19428;49.024;8.366;2024-02-26T07:58:45;8.00;99.90
33067;DHT22;19428;49.024;8.366;2024-02-26T08:01:13;8.00;99.90
33067;DHT22;19428;49.024;8.366;2024-02-26T08:03:40;8.00;99.90
33067;DHT22;19428;49.024;8.366;2024-02-26T08:06:05;7.90;99.90
33067;DHT22;19428;49.024;8.366;2024-02-26T08:08:31;8.00;99.90
33067;DHT22;19428;49.024;8.366;2024-02-26T08:10:57;8.00;99.90
33067;DHT22;19428;49.024;8.366;2024-02-26T08:13:22;8.00;99.90
33067;DHT22;19428;49.024;8.366;2024-02-26T08:15:48;8.00;99.90
33067;DHT22;19428;49.024;8.366;2024-02-26T08:18:13;8.10;99.90
33067;DHT22;19428;49.024;8.366;2024-02-26T08:20:39;8.10;99.90
33067;DHT22;19428;49.024;8.366;2024-02-26T08:23:04;8.10;99.90
33067;DHT22;19428;49.024;8.366;2024-02-26T08:25:30;8.10;99.90
33067;DHT22;19428;49.024;8.366;2024-02-26T08:27:56;8.20;99.90
33067;DHT22;19428;49.024;8.366;2024-02-26T08:30:21;8.30;99.90
33067;DHT22;19428;49.024;8.366;2024-02-26T08:32:47;8.50;99.90
33067;DHT22;19428;49.024;8.366;2024-02-26T08:35:13;8.60;99.90
33067;DHT22;19428;49.024;8.366;2024-02-26T08:37:39;8.60;99.90
33067;DHT22;19428;49.024;8.366;2024-02-26T08:40:06;8.80;99.90
33067;DHT22;19428;49.024;8.366;2024-02-26T08:42:32;8.80;99.90
33067;DHT22;19428;49.024;8.366;2024-02-26T08:44:57;8.90;99.90
33067;DHT22;19428;49.024;8.366;2024-02-26T08:47:25;8.90;99.90
33067;DHT22;19428;49.024;8.366;2024-02-26T08:49:51;9.00;99.90
33067;DHT22;19428;49.024;8.366;2024-02-26T08:52:17;9.00;99.90
33067;DHT22;19428;49.024;8.366;2024-02-26T08:54:42;9.00;99.90
33067;DHT22;19428;49.024;8.366;2024-02-26T08:57:08;9.10;99.90
33067;DHT22;19428;49.024;8.366;2024-02-26T08:59:33;9.20;99.90
33067;DHT22;19428;49.024;8.366;2024-02-26T09:01:59;9.20;99.90
33067;DHT22;19428;49.024;8.366;2024-02-26T09:04:25;9.20;99.90
33067;DHT22;19428;49.024;8.366;2024-02-26T09:06:51;9.30;99.90
33067;DHT22;19428;49.024;8.366;2024-02-26T09:09:17;9.30;99.90
33067;DHT22;19428;49.024;8.366;2024-02-26T09:11:43;9.40;99.90
33067;DHT22;19428;49.024;8.366;2024-02-26T09:14:08;9.50;99.90
33067;DHT22;19428;49.024;8.366;2024-02-26T09:16:34;9.50;99.90
33067;DHT22;19428;49.024;8.366;2024-02-26T09:18:59;9.50;99.90
33067;DHT22;19428;49.024;8.366;2024-02-26T09:21:25;9.60;99.90
33067;DHT22;19428;49.024;8.366;2024-02-26T09:23:52;9.70;99.90
33067;DHT22;19428;49.024;8.366;2024-02-26T09:26:18;9.80;99.90
33067;DHT22;19428;49.024;8.366;2024-02-26T09:28:44;9.70;99.90
33067;DHT22;19428;49.024;8.366;2024-02-26T09:31:09;9.80;99.90
33067;DHT22;19428;49.024;8.366;2024-02-26T09:33:35;9.90;99.90
33067;DHT22;19428;49.024;8.366;2024-02-26T09:36:01;9.90;99.90
33067;DHT22;19428;49.024;8.366;2024-02-26T09:38:27;10.00;99.90
33067;DHT22;19428;49.024;8.366;2024-02-26T09:40:53;9.90;99.90
33067;DHT22;19428;49.024;8.366;2024-02-26T09:43:21;10.00;99.90
33067;DHT22;19428;49.024;8.366;2024-02-26T09:45:50;10.10;99.90
33067;DHT22;19428;49.024;8.366;2024-02-26T09:48:17;10.10;99.90
33067;DHT22;19428;49.024;8.366;2024-02-26T09:50:43;10.00;99.90
33067;DHT22;19428;49.024;8.366;2024-02-26T09:53:10;10.10;99.90
33067;DHT22;19428;49.024;8.366;2024-02-26T09:55:36;10.20;99.90
33067;DHT22;19428;49.024;8.366;2024-02-26T09:58:05;10.30;99.90
33067;DHT22;19428;49.024;8.366;2024-02-26T10:00:31;10.30;99.90
33067;DHT22;19428;49.024;8.366;2024-02-26T10:03:09;10.50;99.90
33067;DHT22;19428;49.024;8.366;2024-02-26T10:05:38;10.60;99.90
33067;DHT22;19428;49.024;8.366;2024-02-26T10:08:06;10.50;99.90
33067;DHT22;19428;49.024;8.366;2024-02-26T10:10:33;10.50;99.90
33067;DHT22;19428;49.024;8.366;2024-02-26T10:13:00;10.60;99.90
33067;DHT22;19428;49.024;8.366;2024-02-26T10:15:26;10.60;99.90
33067;DHT22;19428;49.024;8.366;2024-02-26T10:17:52;10.60;99.90
33067;DHT22;19428;49.024;8.366;2024-02-26T10:20:19;10.60;99.90
33067;DHT22;19428;49.024;8.366;2024-02-26T10:22:47;10.80;99.90
33067;DHT22;19428;49.024;8.366;2024-02-26T10:25:13;10.80;99.90
33067;DHT22;19428;49.024;8.366;2024-02-26T10:27:40;10.90;99.90
33067;DHT22;19428;49.024;8.366;2024-02-26T10:32:47;10.90;99.90
33067;DHT22;19428;49.024;8.366;2024-02-26T10:35:13;11.00;99.90
33067;DHT22;19428;49.024;8.366;2024-02-26T10:37:42;11.00;99.90
33067;DHT22;19428;49.024;8.366;2024-02-26T10:40:15;10.90;99.90
33067;DHT22;19428;49.024;8.366;2024-02-26T10:42:42;11.20;99.90
33067;DHT22;19428;49.024;8.366;2024-02-26T10:45:09;11.10;99.90
33067;DHT22;19428;49.024;8.366;2024-02-26T10:47:35;11.30;99.90
33067;DHT22;19428;49.024;8.366;2024-02-26T10:50:02;11.30;99.90
33067;DHT22;19428;49.024;8.366;2024-02-26T10:52:32;11.20;99.90
33067;DHT22;19428;49.024;8.366;2024-02-26T10:55:03;11.70;99.90
33067;DHT22;19428;49.024;8.366;2024-02-26T10:57:39;11.60;99.90
33067;DHT22;19428;49.024;8.366;2024-02-26T11:00:05;11.50;99.90
33067;DHT22;19428;49.024;8.366;2024-02-26T11:02:36;11.60;99.90
33067;DHT22;19428;49.024;8.366;2024-02-26T11:05:05;11.90;99.90
33067;DHT22;19428;49.024;8.366;2024-02-26T11:07:32;12.00;99.90
33067;DHT22;19428;49.024;8.366;2024-02-26T11:10:03;12.10;99.90
33067;DHT22;19428;49.024;8.366;2024-02-26T11:12:30;12.20;99.90
33067;DHT22;19428;49.024;8.366;2024-02-26T11:14:56;11.90;99.90
33067;DHT22;19428;49.024;8.366;2024-02-26T11:17:27;11.70;99.90
33067;DHT22;19428;49.024;8.366;2024-02-26T11:19:56;11.80;99.90
33067;DHT22;19428;49.024;8.366;2024-02-26T11:22:24;12.00;99.90
33067;DHT22;19428;49.024;8.366;2024-02-26T11:24:51;12.30;99.90
33067;DHT22;19428;49.024;8.366;2024-02-26T11:27:18;12.30;99.90
33067;DHT22;19428;49.024;8.366;2024-02-26T11:29:53;12.00;99.90
33067;DHT22;19428;49.024;8.366;2024-02-26T11:32:20;12.20;99.90
33067;DHT22;19428;49.024;8.366;2024-02-26T11:34:46;12.20;99.90
33067;DHT22;19428;49.024;8.366;2024-02-26T11:37:17;12.10;99.90
33067;DHT22;19428;49.024;8.366;2024-02-26T11:39:43;12.30;99.90
33067;DHT22;19428;49.024;8.366;2024-02-26T11:42:14;12.80;99.90
33067;DHT22;19428;49.024;8.366;2024-02-26T11:44:39;12.90;99.90
33067;DHT22;19428;49.024;8.366;2024-02-26T11:47:17;13.10;99.90
33067;DHT22;19428;49.024;8.366;2024-02-26T11:49:43;13.40;99.90
33067;DHT22;19428;49.024;8.366;2024-02-26T11:52:10;13.50;99.90
33067;DHT22;19428;49.024;8.366;2024-02-26T11:54:49;13.80;85.70
33067;DHT22;19428;49.024;8.366;2024-02-26T12:00:00;13.80;68.10
33067;DHT22;19428;49.024;8.366;2024-02-26T12:02:50;13.90;57.20
33067;DHT22;19428;49.024;8.366;2024-02-26T12:05:32;13.80;50.10
33067;DHT22;19428;49.024;8.366;2024-02-26T12:08:08;13.60;58.00
33067;DHT22;19428;49.024;8.366;2024-02-26T12:10:36;13.70;59.10
33067;DHT22;19428;49.024;8.366;2024-02-26T12:13:14;13.40;56.00
33067;DHT22;19428;49.024;8.366;2024-02-26T12:15:56;13.60;52.30
33067;DHT22;19428;49.024;8.366;2024-02-26T12:18:23;13.40;53.50
33067;DHT22;19428;49.024;8.366;2024-02-26T12:20:59;13.10;55.70
33067;DHT22;19428;49.024;8.366;2024-02-26T12:23:26;13.10;57.00
33067;DHT22;19428;49.024;8.366;2024-02-26T12:25:52;13.50;53.30
33067;DHT22;19428;49.024;8.366;2024-02-26T12:28:18;13.40;50.90
33067;DHT22;19428;49.024;8.366;2024-02-26T12:30:43;13.40;50.20
33067;DHT22;19428;49.024;8.366;2024-02-26T12:33:09;13.30;45.70
33067;DHT22;19428;49.024;8.366;2024-02-26T12:35:35;13.20;53.20
33067;DHT22;19428;49.024;8.366;2024-02-26T12:38:01;13.40;48.90
33067;DHT22;19428;49.024;8.366;2024-02-26T12:40:29;13.40;45.70
33067;DHT22;19428;49.024;8.366;2024-02-26T12:42:55;13.50;42.10
33067;DHT22;19428;49.024;8.366;2024-02-26T12:45:21;13.80;41.40
33067;DHT22;19428;49.024;8.366;2024-02-26T12:47:46;13.80;29.80
33067;DHT22;19428;49.024;8.366;2024-02-26T12:50:13;13.90;27.20
33067;DHT22;19428;49.024;8.366;2024-02-26T12:52:44;13.60;30.00
33067;DHT22;19428;49.024;8.366;2024-02-26T12:55:14;13.60;37.20
33067;DHT22;19428;49.024;8.366;2024-02-26T12:57:42;13.90;27.90
33067;DHT22;19428;49.024;8.366;2024-02-26T13:00:13;13.80;29.20
33067;DHT22;19428;49.024;8.366;2024-02-26T13:02:41;14.10;26.10
33067;DHT22;19428;49.024;8.366;2024-02-26T13:05:12;13.70;23.40
33067;DHT22;19428;49.024;8.366;2024-02-26T13:07:45;13.60;20.80
33067;DHT22;19428;49.024;8.366;2024-02-26T13:10:13;14.00;26.20
33067;DHT22;19428;49.024;8.366;2024-02-26T13:12:48;14.20;20.30
33067;DHT22;19428;49.024;8.366;2024-02-26T13:15:20;14.10;16.90
33067;DHT22;19428;49.024;8.366;2024-02-26T13:17:47;14.30;17.60
33067;DHT22;19428;49.024;8.366;2024-02-26T13:20:24;14.10;14.50
33067;DHT22;19428;49.024;8.366;2024-02-26T13:22:50;14.10;18.70
33067;DHT22;19428;49.024;8.366;2024-02-26T13:25:20;14.40;16.10
33067;DHT22;19428;49.024;8.366;2024-02-26T13:27:46;14.50;16.00
33067;DHT22;19428;49.024;8.366;2024-02-26T13:30:12;14.50;14.60
33067;DHT22;19428;49.024;8.366;2024-02-26T13:32:40;14.30;15.60
33067;DHT22;19428;49.024;8.366;2024-02-26T13:35:10;14.60;14.00
33067;DHT22;19428;49.024;8.366;2024-02-26T13:37:37;15.10;10.80
33067;DHT22;19428;49.024;8.366;2024-02-26T13:40:10;14.40;9.30
33067;DHT22;19428;49.024;8.366;2024-02-26T13:42:37;14.00;11.40
33067;DHT22;19428;49.024;8.366;2024-02-26T13:45:04;13.90;11.70
33067;DHT22;19428;49.024;8.366;2024-02-26T13:47:32;14.10;14.00
33067;DHT22;19428;49.024;8.366;2024-02-26T13:49:58;14.20;11.40
33067;DHT22;19428;49.024;8.366;2024-02-26T13:52:24;14.30;7.10
33067;DHT22;19428;49.024;8.366;2024-02-26T13:54:51;14.10;7.00
33067;DHT22;19428;49.024;8.366;2024-02-26T13:57:16;14.10;8.60
33067;DHT22;19428;49.024;8.366;2024-02-26T13:59:43;14.50;10.60
33067;DHT22;19428;49.024;8.366;2024-02-26T14:02:09;14.70;6.20
33067;DHT22;19428;49.024;8.366;2024-02-26T14:04:35;14.40;2.60
33067;DHT22;19428;49.024;8.366;2024-02-26T14:07:01;14.90;5.80
33067;DHT22;19428;49.024;8.366;2024-02-26T14:09:27;14.70;2.60
33067;DHT22;19428;49.024;8.366;2024-02-26T14:11:53;14.60;1.60
33067;DHT22;19428;49.024;8.366;2024-02-26T14:14:18;14.60;3.00
33067;DHT22;19428;49.024;8.366;2024-02-26T14:16:44;14.20;6.40
33067;DHT22;19428;49.024;8.366;2024-02-26T14:19:09;13.90;4.80
33067;DHT22;19428;49.024;8.366;2024-02-26T14:21:35;13.90;7.80
33067;DHT22;19428;49.024;8.366;2024-02-26T14:24:00;13.80;7.80
33067;DHT22;19428;49.024;8.366;2024-02-26T14:26:26;13.80;11.00
33067;DHT22;19428;49.024;8.366;2024-02-26T14:28:52;14.20;12.50
33067;DHT22;19428;49.024;8.366;2024-02-26T14:31:18;14.10;9.00
33067;DHT22;19428;49.024;8.366;2024-02-26T14:33:44;14.20;8.00
33067;DHT22;19428;49.024;8.366;2024-02-26T14:36:10;14.30;8.10
33067;DHT22;19428;49.024;8.366;2024-02-26T14:38:36;14.40;9.90
33067;DHT22;19428;49.024;8.366;2024-02-26T14:41:02;14.80;9.20
33067;DHT22;19428;49.024;8.366;2024-02-26T14:43:28;14.80;9.00
33067;DHT22;19428;49.024;8.366;2024-02-26T14:45:53;14.30;9.40
33067;DHT22;19428;49.024;8.366;2024-02-26T14:48:19;14.50;8.80
33067;DHT22;19428;49.024;8.366;2024-02-26T14:50:45;14.30;4.50
33067;DHT22;19428;49.024;8.366;2024-02-26T14:53:10;14.10;7.40
33067;DHT22;19428;49.024;8.366;2024-02-26T14:55:36;14.10;7.20
33067;DHT22;19428;49.024;8.366;2024-02-26T14:58:01;14.00;9.40
33067;DHT22;19428;49.024;8.366;2024-02-26T15:00:27;14.00;9.50
33067;DHT22;19428;49.024;8.366;2024-02-26T15:02:54;13.90;8.40
33067;DHT22;19428;49.024;8.366;2024-02-26T15:05:20;13.80;10.70
33067;DHT22;19428;49.024;8.366;2024-02-26T15:07:46;14.00;10.70
33067;DHT22;19428;49.024;8.366;2024-02-26T15:10:12;14.10;7.20
33067;DHT22;19428;49.024;8.366;2024-02-26T15:12:38;14.10;7.00
33067;DHT22;19428;49.024;8.366;2024-02-26T15:15:04;14.20;7.80
33067;DHT22;19428;49.024;8.366;2024-02-26T15:17:29;14.10;7.00
33067;DHT22;19428;49.024;8.366;2024-02-26T15:19:57;14.10;8.60
33067;DHT22;19428;49.024;8.366;2024-02-26T15:22:24;14.20;9.20
33067;DHT22;19428;49.024;8.366;2024-02-26T15:24:50;14.00;6.40
33067;DHT22;19428;49.024;8.366;2024-02-26T15:27:15;14.00;5.80
33067;DHT22;19428;49.024;8.366;2024-02-26T15:29:42;14.30;5.40
33067;DHT22;19428;49.024;8.366;2024-02-26T15:32:07;14.40;5.20
33067;DHT22;19428;49.024;8.366;2024-02-26T15:34:33;14.30;4.30
33067;DHT22;19428;49.024;8.366;2024-02-26T15:36:59;14.00;4.20
33067;DHT22;19428;49.024;8.366;2024-02-26T15:39:24;13.90;5.50
33067;DHT22;19428;49.024;8.366;2024-02-26T15:41:50;13.80;5.00
33067;DHT22;19428;49.024;8.366;2024-02-26T15:44:15;13.90;5.00
33067;DHT22;19428;49.024;8.366;2024-02-26T15:46:41;13.80;5.20
33067;DHT22;19428;49.024;8.366;2024-02-26T15:49:07;13.70;6.40
33067;DHT22;19428;49.024;8.366;2024-02-26T15:51:33;13.60;3.90
33067;DHT22;19428;49.024;8.366;2024-02-26T15:53:59;13.60;4.90
33067;DHT22;19428;49.024;8.366;2024-02-26T15:56:24;13.50;5.00
33067;DHT22;19428;49.024;8.366;2024-02-26T15:58:51;13.60;4.40
33067;DHT22;19428;49.024;8.366;2024-02-26T16:01:17;13.50;2.80